sensor_id;sensor_type;location;lat;lon;timestamp;P1;durP1;ratioP1;P2;durP2;ratioP2
58758;SDS011;46777;47.482;19.054;2022-09-03T00:02:11;8.15;;;6.95;;
58758;SDS011;46777;47.482;19.054;2022-09-03T00:10:46;8.82;;;7.55;;
58758;SDS011;46777;47.482;19.054;2022-09-03T00:13:37;9.10;;;7.00;;
58758;SDS011;46777;47.482;19.054;2022-09-03T00:16:27;9.20;;;7.15;;
58758;SDS011;46777;47.482;19.054;2022-09-03T00:19:18;8.90;;;7.60;;
58758;SDS011;46777;47.482;19.054;2022-09-03T00:22:09;9.07;;;7.03;;
58758;SDS011;46777;47.482;19.054;2022-09-03T00:25:01;9.07;;;7.40;;
58758;SDS011;46777;47.482;19.054;2022-09-03T00:27:48;7.63;;;6.80;;
58758;SDS011;46777;47.482;19.054;2022-09-03T00:30:38;8.10;;;6.67;;
58758;SDS011;46777;47.482;19.054;2022-09-03T00:33:26;8.25;;;6.75;;
58758;SDS011;46777;47.482;19.054;2022-09-03T00:36:18;11.93;;;7.30;;
58758;SDS011;46777;47.482;19.054;2022-09-03T00:39:14;8.10;;;7.03;;
58758;SDS011;46777;47.482;19.054;2022-09-03T00:45:10;9.93;;;7.70;;
58758;SDS011;46777;47.482;19.054;2022-09-03T00:51:20;7.75;;;7.05;;
58758;SDS011;46777;47.482;19.054;2022-09-03T00:57:42;8.55;;;7.20;;
58758;SDS011;46777;47.482;19.054;2022-09-03T01:00:42;9.50;;;7.22;;
58758;SDS011;46777;47.482;19.054;2022-09-03T01:04:13;9.32;;;7.10;;
58758;SDS011;46777;47.482;19.054;2022-09-03T01:13:39;7.65;;;6.95;;
58758;SDS011;46777;47.482;19.054;2022-09-03T01:17:15;8.18;;;6.78;;
58758;SDS011;46777;47.482;19.054;2022-09-03T01:28:51;7.50;;;6.80;;
58758;SDS011;46777;47.482;19.054;2022-09-03T01:34:42;7.88;;;6.75;;
58758;SDS011;46777;47.482;19.054;2022-09-03T01:41:00;7.70;;;6.90;;
58758;SDS011;46777;47.482;19.054;2022-09-03T01:50:07;8.18;;;6.97;;
58758;SDS011;46777;47.482;19.054;2022-09-03T01:53:09;7.57;;;6.78;;
58758;SDS011;46777;47.482;19.054;2022-09-03T01:59:34;8.05;;;6.82;;
58758;SDS011;46777;47.482;19.054;2022-09-03T02:02:26;7.57;;;6.78;;
58758;SDS011;46777;47.482;19.054;2022-09-03T02:05:22;10.98;;;6.72;;
58758;SDS011;46777;47.482;19.054;2022-09-03T02:08:08;10.13;;;7.30;;
58758;SDS011;46777;47.482;19.054;2022-09-03T02:10:54;8.25;;;7.03;;
58758;SDS011;46777;47.482;19.054;2022-09-03T02:13:49;10.80;;;7.78;;
58758;SDS011;46777;47.482;19.054;2022-09-03T02:16:37;10.10;;;7.28;;
58758;SDS011;46777;47.482;19.054;2022-09-03T02:19:23;14.50;;;7.50;;
58758;SDS011;46777;47.482;19.054;2022-09-03T02:22:10;9.60;;;7.35;;
58758;SDS011;46777;47.482;19.054;2022-09-03T02:24:56;10.30;;;7.10;;
58758;SDS011;46777;47.482;19.054;2022-09-03T02:27:41;11.80;;;7.35;;
58758;SDS011;46777;47.482;19.054;2022-09-03T02:30:27;9.00;;;6.95;;
58758;SDS011;46777;47.482;19.054;2022-09-03T02:33:12;9.95;;;7.30;;
58758;SDS011;46777;47.482;19.054;2022-09-03T02:35:56;10.82;;;6.90;;
58758;SDS011;46777;47.482;19.054;2022-09-03T02:38:41;10.45;;;6.90;;
58758;SDS011;46777;47.482;19.054;2022-09-03T02:41:27;8.25;;;6.90;;
58758;SDS011;46777;47.482;19.054;2022-09-03T02:44:15;7.78;;;6.75;;
58758;SDS011;46777;47.482;19.054;2022-09-03T02:47:09;7.95;;;7.15;;
58758;SDS011;46777;47.482;19.054;2022-09-03T02:49:53;7.55;;;6.60;;
58758;SDS011;46777;47.482;19.054;2022-09-03T02:52:38;8.15;;;6.75;;
58758;SDS011;46777;47.482;19.054;2022-09-03T02:55:23;7.80;;;6.60;;
58758;SDS011;46777;47.482;19.054;2022-09-03T02:58:08;7.22;;;6.53;;
58758;SDS011;46777;47.482;19.054;2022-09-03T03:00:53;8.15;;;6.85;;
58758;SDS011;46777;47.482;19.054;2022-09-03T03:03:38;8.65;;;7.20;;
58758;SDS011;46777;47.482;19.054;2022-09-03T03:06:23;8.88;;;7.07;;
58758;SDS011;46777;47.482;19.054;2022-09-03T03:09:08;7.90;;;7.10;;
58758;SDS011;46777;47.482;19.054;2022-09-03T03:11:53;7.80;;;7.00;;
58758;SDS011;46777;47.482;19.054;2022-09-03T03:14:38;7.75;;;7.05;;
58758;SDS011;46777;47.482;19.054;2022-09-03T03:17:23;8.60;;;7.35;;
58758;SDS011;46777;47.482;19.054;2022-09-03T03:20:09;8.02;;;7.15;;
58758;SDS011;46777;47.482;19.054;2022-09-03T03:22:54;7.68;;;6.60;;
58758;SDS011;46777;47.482;19.054;2022-09-03T03:25:39;9.00;;;7.55;;
58758;SDS011;46777;47.482;19.054;2022-09-03T03:28:23;7.80;;;7.00;;
58758;SDS011;46777;47.482;19.054;2022-09-03T03:31:09;8.15;;;7.35;;
58758;SDS011;46777;47.482;19.054;2022-09-03T03:33:57;7.53;;;6.82;;
58758;SDS011;46777;47.482;19.054;2022-09-03T03:36:44;8.40;;;7.35;;
58758;SDS011;46777;47.482;19.054;2022-09-03T03:39:29;8.43;;;7.40;;
58758;SDS011;46777;47.482;19.054;2022-09-03T03:42:13;8.60;;;7.20;;
58758;SDS011;46777;47.482;19.054;2022-09-03T03:44:58;7.88;;;7.18;;
58758;SDS011;46777;47.482;19.054;2022-09-03T03:47:45;8.38;;;7.43;;
58758;SDS011;46777;47.482;19.054;2022-09-03T03:50:30;7.68;;;6.97;;
58758;SDS011;46777;47.482;19.054;2022-09-03T03:53:15;8.02;;;7.22;;
58758;SDS011;46777;47.482;19.054;2022-09-03T03:56:00;8.63;;;7.70;;
58758;SDS011;46777;47.482;19.054;2022-09-03T03:58:46;8.73;;;7.80;;
58758;SDS011;46777;47.482;19.054;2022-09-03T04:01:31;11.02;;;7.80;;
58758;SDS011;46777;47.482;19.054;2022-09-03T04:04:16;8.52;;;7.72;;
58758;SDS011;46777;47.482;19.054;2022-09-03T04:07:00;8.65;;;7.72;;
58758;SDS011;46777;47.482;19.054;2022-09-03T04:09:45;9.63;;;7.60;;
58758;SDS011;46777;47.482;19.054;2022-09-03T04:12:30;8.05;;;7.25;;
58758;SDS011;46777;47.482;19.054;2022-09-03T04:15:16;8.65;;;7.80;;
58758;SDS011;46777;47.482;19.054;2022-09-03T04:18:01;8.52;;;7.70;;
58758;SDS011;46777;47.482;19.054;2022-09-03T04:20:46;9.95;;;8.45;;
58758;SDS011;46777;47.482;19.054;2022-09-03T04:23:31;8.70;;;7.80;;
58758;SDS011;46777;47.482;19.054;2022-09-03T04:26:21;8.30;;;7.60;;
58758;SDS011;46777;47.482;19.054;2022-09-03T04:29:11;8.55;;;7.45;;
58758;SDS011;46777;47.482;19.054;2022-09-03T04:31:56;10.10;;;7.63;;
58758;SDS011;46777;47.482;19.054;2022-09-03T04:34:59;9.05;;;8.13;;
58758;SDS011;46777;47.482;19.054;2022-09-03T04:37:45;8.73;;;7.65;;
58758;SDS011;46777;47.482;19.054;2022-09-03T04:40:30;8.38;;;7.50;;
58758;SDS011;46777;47.482;19.054;2022-09-03T04:43:15;8.63;;;7.75;;
58758;SDS011;46777;47.482;19.054;2022-09-03T04:46:00;8.75;;;7.88;;
58758;SDS011;46777;47.482;19.054;2022-09-03T04:48:48;8.73;;;7.88;;
58758;SDS011;46777;47.482;19.054;2022-09-03T04:51:34;8.68;;;7.85;;
58758;SDS011;46777;47.482;19.054;2022-09-03T04:54:20;8.52;;;7.60;;
58758;SDS011;46777;47.482;19.054;2022-09-03T04:57:05;9.63;;;8.65;;
58758;SDS011;46777;47.482;19.054;2022-09-03T04:59:50;8.70;;;7.72;;
58758;SDS011;46777;47.482;19.054;2022-09-03T05:02:35;8.65;;;7.50;;
58758;SDS011;46777;47.482;19.054;2022-09-03T05:05:20;9.43;;;7.38;;
58758;SDS011;46777;47.482;19.054;2022-09-03T05:08:05;8.40;;;7.63;;
58758;SDS011;46777;47.482;19.054;2022-09-03T05:10:56;8.93;;;8.02;;
58758;SDS011;46777;47.482;19.054;2022-09-03T05:13:46;9.00;;;8.07;;
58758;SDS011;46777;47.482;19.054;2022-09-03T05:19:19;8.65;;;7.85;;
58758;SDS011;46777;47.482;19.054;2022-09-03T05:22:04;9.40;;;7.97;;
58758;SDS011;46777;47.482;19.054;2022-09-03T05:24:49;8.50;;;7.68;;
58758;SDS011;46777;47.482;19.054;2022-09-03T05:27:34;8.95;;;7.82;;
58758;SDS011;46777;47.482;19.054;2022-09-03T05:30:19;8.38;;;7.57;;
58758;SDS011;46777;47.482;19.054;2022-09-03T05:33:05;9.10;;;8.20;;
58758;SDS011;46777;47.482;19.054;2022-09-03T05:35:50;8.48;;;7.70;;
58758;SDS011;46777;47.482;19.054;2022-09-03T05:38:37;9.40;;;8.02;;
58758;SDS011;46777;47.482;19.054;2022-09-03T05:41:22;9.48;;;8.50;;
58758;SDS011;46777;47.482;19.054;2022-09-03T05:44:07;8.88;;;8.00;;
58758;SDS011;46777;47.482;19.054;2022-09-03T05:46:52;9.75;;;8.35;;
58758;SDS011;46777;47.482;19.054;2022-09-03T05:49:37;8.82;;;8.02;;
58758;SDS011;46777;47.482;19.054;2022-09-03T05:52:22;9.45;;;8.50;;
58758;SDS011;46777;47.482;19.054;2022-09-03T05:55:07;9.98;;;8.32;;
58758;SDS011;46777;47.482;19.054;2022-09-03T05:57:51;10.07;;;8.88;;
58758;SDS011;46777;47.482;19.054;2022-09-03T06:00:36;11.02;;;9.40;;
58758;SDS011;46777;47.482;19.054;2022-09-03T06:03:21;9.80;;;8.80;;
58758;SDS011;46777;47.482;19.054;2022-09-03T06:06:06;10.27;;;8.75;;
58758;SDS011;46777;47.482;19.054;2022-09-03T06:08:55;9.30;;;8.30;;
58758;SDS011;46777;47.482;19.054;2022-09-03T06:11:42;11.13;;;9.50;;
58758;SDS011;46777;47.482;19.054;2022-09-03T06:14:28;10.75;;;9.20;;
58758;SDS011;46777;47.482;19.054;2022-09-03T06:17:12;10.05;;;9.07;;
58758;SDS011;46777;47.482;19.054;2022-09-03T06:19:58;10.77;;;9.52;;
58758;SDS011;46777;47.482;19.054;2022-09-03T06:22:46;14.15;;;12.88;;
58758;SDS011;46777;47.482;19.054;2022-09-03T06:25:32;14.63;;;13.32;;
58758;SDS011;46777;47.482;19.054;2022-09-03T06:28:17;14.70;;;13.13;;
58758;SDS011;46777;47.482;19.054;2022-09-03T06:31:02;15.45;;;14.00;;
58758;SDS011;46777;47.482;19.054;2022-09-03T06:33:49;15.13;;;13.52;;
58758;SDS011;46777;47.482;19.054;2022-09-03T06:36:34;13.30;;;12.07;;
58758;SDS011;46777;47.482;19.054;2022-09-03T06:39:19;13.88;;;12.57;;
58758;SDS011;46777;47.482;19.054;2022-09-03T06:42:04;14.77;;;13.38;;
58758;SDS011;46777;47.482;19.054;2022-09-03T06:44:49;13.55;;;12.20;;
58758;SDS011;46777;47.482;19.054;2022-09-03T06:47:34;12.63;;;11.52;;
58758;SDS011;46777;47.482;19.054;2022-09-03T06:50:19;11.82;;;10.82;;
58758;SDS011;46777;47.482;19.054;2022-09-03T06:53:03;12.23;;;11.10;;
58758;SDS011;46777;47.482;19.054;2022-09-03T06:55:55;13.20;;;12.00;;
58758;SDS011;46777;47.482;19.054;2022-09-03T06:58:43;12.30;;;11.13;;
58758;SDS011;46777;47.482;19.054;2022-09-03T07:01:29;11.80;;;10.80;;
58758;SDS011;46777;47.482;19.054;2022-09-03T07:04:15;11.48;;;10.40;;
58758;SDS011;46777;47.482;19.054;2022-09-03T07:07:00;11.75;;;10.70;;
58758;SDS011;46777;47.482;19.054;2022-09-03T07:09:45;11.52;;;10.50;;
58758;SDS011;46777;47.482;19.054;2022-09-03T07:12:30;11.50;;;10.50;;
58758;SDS011;46777;47.482;19.054;2022-09-03T07:15:19;10.70;;;9.90;;
58758;SDS011;46777;47.482;19.054;2022-09-03T07:18:04;12.35;;;10.68;;
58758;SDS011;46777;47.482;19.054;2022-09-03T07:20:49;10.70;;;9.85;;
58758;SDS011;46777;47.482;19.054;2022-09-03T07:23:34;8.40;;;6.70;;
58758;SDS011;46777;47.482;19.054;2022-09-03T07:26:21;8.77;;;6.55;;
58758;SDS011;46777;47.482;19.054;2022-09-03T07:29:08;7.35;;;6.57;;
58758;SDS011;46777;47.482;19.054;2022-09-03T07:31:53;9.45;;;7.72;;
58758;SDS011;46777;47.482;19.054;2022-09-03T07:34:37;11.27;;;10.30;;
58758;SDS011;46777;47.482;19.054;2022-09-03T07:37:22;10.65;;;9.77;;
58758;SDS011;46777;47.482;19.054;2022-09-03T07:40:08;10.75;;;9.85;;
58758;SDS011;46777;47.482;19.054;2022-09-03T07:42:56;11.10;;;10.18;;
58758;SDS011;46777;47.482;19.054;2022-09-03T07:45:48;11.80;;;10.73;;
58758;SDS011;46777;47.482;19.054;2022-09-03T07:48:33;11.07;;;10.18;;
58758;SDS011;46777;47.482;19.054;2022-09-03T07:51:19;11.32;;;10.32;;
58758;SDS011;46777;47.482;19.054;2022-09-03T07:54:05;11.70;;;10.60;;
58758;SDS011;46777;47.482;19.054;2022-09-03T07:56:53;12.15;;;11.25;;
58758;SDS011;46777;47.482;19.054;2022-09-03T07:59:38;11.98;;;11.07;;
58758;SDS011;46777;47.482;19.054;2022-09-03T08:02:23;12.55;;;11.55;;
58758;SDS011;46777;47.482;19.054;2022-09-03T08:05:08;12.95;;;11.85;;
58758;SDS011;46777;47.482;19.054;2022-09-03T08:07:53;13.27;;;12.27;;
58758;SDS011;46777;47.482;19.054;2022-09-03T08:10:38;12.85;;;11.75;;
58758;SDS011;46777;47.482;19.054;2022-09-03T08:13:23;12.93;;;11.93;;
58758;SDS011;46777;47.482;19.054;2022-09-03T08:16:08;13.43;;;12.43;;
58758;SDS011;46777;47.482;19.054;2022-09-03T08:18:56;13.82;;;12.57;;
58758;SDS011;46777;47.482;19.054;2022-09-03T08:21:41;14.02;;;12.82;;
58758;SDS011;46777;47.482;19.054;2022-09-03T08:24:26;14.90;;;13.70;;
58758;SDS011;46777;47.482;19.054;2022-09-03T08:27:11;14.23;;;13.02;;
58758;SDS011;46777;47.482;19.054;2022-09-03T08:29:56;14.95;;;13.55;;
58758;SDS011;46777;47.482;19.054;2022-09-03T08:32:41;13.70;;;12.63;;
58758;SDS011;46777;47.482;19.054;2022-09-03T08:35:25;12.40;;;11.48;;
58758;SDS011;46777;47.482;19.054;2022-09-03T08:38:10;12.63;;;11.60;;
58758;SDS011;46777;47.482;19.054;2022-09-03T08:41:01;13.38;;;12.23;;
58758;SDS011;46777;47.482;19.054;2022-09-03T08:47:10;12.27;;;11.25;;
58758;SDS011;46777;47.482;19.054;2022-09-03T08:56:07;12.30;;;11.30;;
58758;SDS011;46777;47.482;19.054;2022-09-03T08:58:56;11.98;;;10.98;;
58758;SDS011;46777;47.482;19.054;2022-09-03T09:01:50;11.82;;;10.80;;
58758;SDS011;46777;47.482;19.054;2022-09-03T09:04:46;11.77;;;10.70;;
58758;SDS011;46777;47.482;19.054;2022-09-03T09:08:17;11.73;;;10.73;;
58758;SDS011;46777;47.482;19.054;2022-09-03T09:23:46;11.13;;;10.20;;
58758;SDS011;46777;47.482;19.054;2022-09-03T09:26:32;10.90;;;10.00;;
58758;SDS011;46777;47.482;19.054;2022-09-03T09:29:17;10.95;;;10.15;;
58758;SDS011;46777;47.482;19.054;2022-09-03T09:32:02;11.40;;;10.50;;
58758;SDS011;46777;47.482;19.054;2022-09-03T09:34:48;11.48;;;10.55;;
58758;SDS011;46777;47.482;19.054;2022-09-03T09:37:33;11.30;;;10.40;;
58758;SDS011;46777;47.482;19.054;2022-09-03T09:40:29;10.88;;;10.07;;
58758;SDS011;46777;47.482;19.054;2022-09-03T09:43:17;10.45;;;9.60;;
58758;SDS011;46777;47.482;19.054;2022-09-03T09:46:06;10.32;;;9.52;;
58758;SDS011;46777;47.482;19.054;2022-09-03T09:48:58;10.88;;;10.05;;
58758;SDS011;46777;47.482;19.054;2022-09-03T09:51:42;10.73;;;9.82;;
58758;SDS011;46777;47.482;19.054;2022-09-03T09:54:27;10.90;;;9.90;;
58758;SDS011;46777;47.482;19.054;2022-09-03T09:57:24;10.70;;;9.80;;
58758;SDS011;46777;47.482;19.054;2022-09-03T10:00:13;10.57;;;9.77;;
58758;SDS011;46777;47.482;19.054;2022-09-03T10:03:00;10.90;;;10.10;;
58758;SDS011;46777;47.482;19.054;2022-09-03T10:05:53;9.93;;;9.10;;
58758;SDS011;46777;47.482;19.054;2022-09-03T10:08:44;11.25;;;10.27;;
58758;SDS011;46777;47.482;19.054;2022-09-03T10:11:29;11.45;;;10.35;;
58758;SDS011;46777;47.482;19.054;2022-09-03T10:14:25;9.45;;;6.85;;
58758;SDS011;46777;47.482;19.054;2022-09-03T10:20:44;7.57;;;6.75;;
58758;SDS011;46777;47.482;19.054;2022-09-03T10:23:49;7.43;;;6.70;;
58758;SDS011;46777;47.482;19.054;2022-09-03T10:26:41;8.32;;;7.25;;
58758;SDS011;46777;47.482;19.054;2022-09-03T10:29:29;11.60;;;10.52;;
58758;SDS011;46777;47.482;19.054;2022-09-03T10:35:29;11.18;;;10.25;;
58758;SDS011;46777;47.482;19.054;2022-09-03T10:38:19;11.00;;;9.95;;
58758;SDS011;46777;47.482;19.054;2022-09-03T10:47:53;9.07;;;6.80;;
58758;SDS011;46777;47.482;19.054;2022-09-03T10:51:00;8.00;;;6.40;;
58758;SDS011;46777;47.482;19.054;2022-09-03T10:53:55;9.23;;;8.43;;
58758;SDS011;46777;47.482;19.054;2022-09-03T11:06:02;7.40;;;6.63;;
58758;SDS011;46777;47.482;19.054;2022-09-03T11:09:00;10.75;;;9.90;;
58758;SDS011;46777;47.482;19.054;2022-09-03T11:18:52;10.68;;;9.77;;
58758;SDS011;46777;47.482;19.054;2022-09-03T11:21:46;10.32;;;9.57;;
58758;SDS011;46777;47.482;19.054;2022-09-03T11:24:32;10.20;;;9.27;;
58758;SDS011;46777;47.482;19.054;2022-09-03T11:27:25;9.57;;;8.77;;
58758;SDS011;46777;47.482;19.054;2022-09-03T11:33:42;6.65;;;6.00;;
58758;SDS011;46777;47.482;19.054;2022-09-03T11:36:46;6.30;;;5.72;;
58758;SDS011;46777;47.482;19.054;2022-09-03T11:48:17;9.90;;;9.20;;
58758;SDS011;46777;47.482;19.054;2022-09-03T11:57:07;9.52;;;8.73;;
58758;SDS011;46777;47.482;19.054;2022-09-03T12:00:09;9.57;;;8.77;;
58758;SDS011;46777;47.482;19.054;2022-09-03T12:03:00;9.10;;;8.40;;
58758;SDS011;46777;47.482;19.054;2022-09-03T12:18:07;9.52;;;8.90;;
58758;SDS011;46777;47.482;19.054;2022-09-03T12:21:05;9.25;;;8.50;;
58758;SDS011;46777;47.482;19.054;2022-09-03T12:23:52;9.40;;;8.70;;
58758;SDS011;46777;47.482;19.054;2022-09-03T12:26:39;10.20;;;9.52;;
58758;SDS011;46777;47.482;19.054;2022-09-03T12:29:27;9.65;;;8.95;;
58758;SDS011;46777;47.482;19.054;2022-09-03T12:32:13;10.07;;;9.27;;
58758;SDS011;46777;47.482;19.054;2022-09-03T12:35:08;10.13;;;9.35;;
58758;SDS011;46777;47.482;19.054;2022-09-03T12:38:03;10.85;;;10.05;;
58758;SDS011;46777;47.482;19.054;2022-09-03T12:40:48;9.85;;;9.05;;
58758;SDS011;46777;47.482;19.054;2022-09-03T12:43:33;9.80;;;9.00;;
58758;SDS011;46777;47.482;19.054;2022-09-03T12:46:21;9.98;;;9.07;;
58758;SDS011;46777;47.482;19.054;2022-09-03T12:49:06;8.90;;;8.27;;
58758;SDS011;46777;47.482;19.054;2022-09-03T12:51:56;9.00;;;8.40;;
58758;SDS011;46777;47.482;19.054;2022-09-03T12:57:48;9.20;;;8.60;;
58758;SDS011;46777;47.482;19.054;2022-09-03T13:00:47;9.07;;;8.48;;
58758;SDS011;46777;47.482;19.054;2022-09-03T13:04:13;10.07;;;9.10;;
58758;SDS011;46777;47.482;19.054;2022-09-03T13:09:51;10.07;;;9.27;;
58758;SDS011;46777;47.482;19.054;2022-09-03T13:12:45;8.98;;;8.38;;
58758;SDS011;46777;47.482;19.054;2022-09-03T13:15:33;9.05;;;8.40;;
58758;SDS011;46777;47.482;19.054;2022-09-03T13:18:26;9.27;;;8.40;;
58758;SDS011;46777;47.482;19.054;2022-09-03T13:21:30;8.93;;;8.18;;
58758;SDS011;46777;47.482;19.054;2022-09-03T13:24:56;6.30;;;5.70;;
58758;SDS011;46777;47.482;19.054;2022-09-03T13:31:03;5.90;;;5.40;;
58758;SDS011;46777;47.482;19.054;2022-09-03T13:33:50;6.07;;;5.47;;
58758;SDS011;46777;47.482;19.054;2022-09-03T13:36:43;5.97;;;4.90;;
58758;SDS011;46777;47.482;19.054;2022-09-03T13:39:45;5.38;;;4.97;;
58758;SDS011;46777;47.482;19.054;2022-09-03T13:42:36;5.82;;;5.32;;
58758;SDS011;46777;47.482;19.054;2022-09-03T13:45:36;5.37;;;4.87;;
58758;SDS011;46777;47.482;19.054;2022-09-03T13:48:29;5.30;;;4.80;;
58758;SDS011;46777;47.482;19.054;2022-09-03T13:51:42;5.82;;;4.70;;
58758;SDS011;46777;47.482;19.054;2022-09-03T13:54:34;6.13;;;4.70;;
58758;SDS011;46777;47.482;19.054;2022-09-03T14:00:29;5.03;;;4.63;;
58758;SDS011;46777;47.482;19.054;2022-09-03T14:03:35;5.25;;;4.72;;
58758;SDS011;46777;47.482;19.054;2022-09-03T14:09:29;5.00;;;4.50;;
58758;SDS011;46777;47.482;19.054;2022-09-03T14:15:19;5.35;;;4.50;;
58758;SDS011;46777;47.482;19.054;2022-09-03T14:20:58;5.93;;;5.32;;
58758;SDS011;46777;47.482;19.054;2022-09-03T14:24:07;6.10;;;5.20;;
58758;SDS011;46777;47.482;19.054;2022-09-03T14:27:04;6.68;;;5.18;;
58758;SDS011;46777;47.482;19.054;2022-09-03T14:29:58;5.32;;;4.85;;
58758;SDS011;46777;47.482;19.054;2022-09-03T14:35:43;5.22;;;4.63;;
58758;SDS011;46777;47.482;19.054;2022-09-03T14:38:40;5.10;;;4.70;;
58758;SDS011;46777;47.482;19.054;2022-09-03T14:42:30;5.32;;;4.40;;
58758;SDS011;46777;47.482;19.054;2022-09-03T14:48:04;6.20;;;5.18;;
58758;SDS011;46777;47.482;19.054;2022-09-03T14:51:22;6.47;;;5.53;;
58758;SDS011;46777;47.482;19.054;2022-09-03T14:54:27;6.55;;;5.25;;
58758;SDS011;46777;47.482;19.054;2022-09-03T15:00:20;5.82;;;5.22;;
58758;SDS011;46777;47.482;19.054;2022-09-03T15:06:22;6.10;;;5.50;;
58758;SDS011;46777;47.482;19.054;2022-09-03T15:09:25;5.70;;;5.25;;
58758;SDS011;46777;47.482;19.054;2022-09-03T15:12:20;9.70;;;9.00;;
58758;SDS011;46777;47.482;19.054;2022-09-03T15:15:12;10.30;;;9.50;;
58758;SDS011;46777;47.482;19.054;2022-09-03T15:30:41;9.75;;;8.88;;
58758;SDS011;46777;47.482;19.054;2022-09-03T15:33:36;9.25;;;8.65;;
58758;SDS011;46777;47.482;19.054;2022-09-03T15:36:39;9.77;;;8.85;;
58758;SDS011;46777;47.482;19.054;2022-09-03T15:39:33;9.60;;;8.95;;
58758;SDS011;46777;47.482;19.054;2022-09-03T15:42:24;9.68;;;8.93;;
58758;SDS011;46777;47.482;19.054;2022-09-03T15:51:35;9.35;;;8.60;;
58758;SDS011;46777;47.482;19.054;2022-09-03T15:57:25;9.52;;;8.82;;
58758;SDS011;46777;47.482;19.054;2022-09-03T16:00:19;9.25;;;8.55;;
58758;SDS011;46777;47.482;19.054;2022-09-03T16:03:09;8.82;;;8.13;;
58758;SDS011;46777;47.482;19.054;2022-09-03T16:06:01;9.30;;;8.60;;
58758;SDS011;46777;47.482;19.054;2022-09-03T16:08:56;9.30;;;8.50;;
58758;SDS011;46777;47.482;19.054;2022-09-03T16:11:59;9.07;;;8.27;;
58758;SDS011;46777;47.482;19.054;2022-09-03T16:14:57;9.00;;;8.40;;
58758;SDS011;46777;47.482;19.054;2022-09-03T16:20:42;8.98;;;8.27;;
58758;SDS011;46777;47.482;19.054;2022-09-03T16:23:38;9.45;;;8.65;;
58758;SDS011;46777;47.482;19.054;2022-09-03T16:29:34;9.50;;;8.80;;
58758;SDS011;46777;47.482;19.054;2022-09-03T16:41:31;10.10;;;9.15;;
58758;SDS011;46777;47.482;19.054;2022-09-03T16:44:35;9.68;;;8.80;;
58758;SDS011;46777;47.482;19.054;2022-09-03T16:57:10;10.10;;;9.30;;
58758;SDS011;46777;47.482;19.054;2022-09-03T17:00:48;10.10;;;9.30;;
58758;SDS011;46777;47.482;19.054;2022-09-03T17:13:10;6.80;;;6.00;;
58758;SDS011;46777;47.482;19.054;2022-09-03T17:19:34;7.60;;;6.90;;
58758;SDS011;46777;47.482;19.054;2022-09-03T17:22:47;7.88;;;6.00;;
58758;SDS011;46777;47.482;19.054;2022-09-03T17:25:38;7.28;;;6.38;;
58758;SDS011;46777;47.482;19.054;2022-09-03T17:31:45;8.02;;;6.15;;
58758;SDS011;46777;47.482;19.054;2022-09-03T17:38:08;10.00;;;6.25;;
58758;SDS011;46777;47.482;19.054;2022-09-03T17:52:59;10.30;;;8.07;;
58758;SDS011;46777;47.482;19.054;2022-09-03T17:56:03;7.57;;;6.38;;
58758;SDS011;46777;47.482;19.054;2022-09-03T18:01:47;9.05;;;7.75;;
58758;SDS011;46777;47.482;19.054;2022-09-03T18:13:59;9.75;;;8.75;;
58758;SDS011;46777;47.482;19.054;2022-09-03T18:17:00;11.65;;;9.07;;
58758;SDS011;46777;47.482;19.054;2022-09-03T18:20:18;12.93;;;8.40;;
58758;SDS011;46777;47.482;19.054;2022-09-03T18:23:27;9.70;;;8.10;;
58758;SDS011;46777;47.482;19.054;2022-09-03T18:26:36;11.20;;;8.35;;
58758;SDS011;46777;47.482;19.054;2022-09-03T18:29:47;10.30;;;8.80;;
58758;SDS011;46777;47.482;19.054;2022-09-03T18:32:56;9.18;;;8.18;;
58758;SDS011;46777;47.482;19.054;2022-09-03T18:35:59;8.93;;;8.02;;
58758;SDS011;46777;47.482;19.054;2022-09-03T18:39:11;8.90;;;7.45;;
58758;SDS011;46777;47.482;19.054;2022-09-03T18:45:42;10.85;;;7.60;;
58758;SDS011;46777;47.482;19.054;2022-09-03T18:48:54;8.77;;;7.88;;
58758;SDS011;46777;47.482;19.054;2022-09-03T18:59:06;10.95;;;8.70;;
58758;SDS011;46777;47.482;19.054;2022-09-03T19:02:31;10.13;;;8.60;;
58758;SDS011;46777;47.482;19.054;2022-09-03T19:09:20;8.40;;;7.60;;
58758;SDS011;46777;47.482;19.054;2022-09-03T19:12:53;9.73;;;8.63;;
58758;SDS011;46777;47.482;19.054;2022-09-03T19:16:02;10.02;;;7.30;;
58758;SDS011;46777;47.482;19.054;2022-09-03T19:22:56;12.30;;;11.20;;
58758;SDS011;46777;47.482;19.054;2022-09-03T19:26:03;12.48;;;11.38;;
58758;SDS011;46777;47.482;19.054;2022-09-03T19:29:31;12.52;;;11.52;;
58758;SDS011;46777;47.482;19.054;2022-09-03T19:33:14;12.82;;;11.63;;
58758;SDS011;46777;47.482;19.054;2022-09-03T19:43:58;11.10;;;10.10;;
58758;SDS011;46777;47.482;19.054;2022-09-03T19:47:28;11.15;;;10.25;;
58758;SDS011;46777;47.482;19.054;2022-09-03T19:50:37;11.50;;;10.40;;
58758;SDS011;46777;47.482;19.054;2022-09-03T19:53:46;11.27;;;10.35;;
58758;SDS011;46777;47.482;19.054;2022-09-03T19:56:53;10.95;;;9.95;;
58758;SDS011;46777;47.482;19.054;2022-09-03T19:59:59;11.18;;;10.27;;
58758;SDS011;46777;47.482;19.054;2022-09-03T20:03:04;11.07;;;10.10;;
58758;SDS011;46777;47.482;19.054;2022-09-03T20:06:08;12.25;;;11.20;;
58758;SDS011;46777;47.482;19.054;2022-09-03T20:09:11;11.20;;;10.20;;
58758;SDS011;46777;47.482;19.054;2022-09-03T20:12:18;11.90;;;10.65;;
58758;SDS011;46777;47.482;19.054;2022-09-03T20:15:06;12.00;;;10.98;;
58758;SDS011;46777;47.482;19.054;2022-09-03T20:18:03;12.82;;;11.57;;
58758;SDS011;46777;47.482;19.054;2022-09-03T20:23:45;13.18;;;11.80;;
58758;SDS011;46777;47.482;19.054;2022-09-03T20:36:16;12.80;;;11.57;;
58758;SDS011;46777;47.482;19.054;2022-09-03T20:42:24;12.82;;;11.70;;
58758;SDS011;46777;47.482;19.054;2022-09-03T20:48:10;13.68;;;11.85;;
58758;SDS011;46777;47.482;19.054;2022-09-03T20:51:19;12.82;;;11.60;;
58758;SDS011;46777;47.482;19.054;2022-09-03T21:00:14;12.23;;;11.02;;
58758;SDS011;46777;47.482;19.054;2022-09-03T21:06:01;12.10;;;10.98;;
58758;SDS011;46777;47.482;19.054;2022-09-03T21:09:06;13.27;;;12.07;;
58758;SDS011;46777;47.482;19.054;2022-09-03T21:15:13;13.32;;;12.20;;
58758;SDS011;46777;47.482;19.054;2022-09-03T21:26:49;13.07;;;11.90;;
58758;SDS011;46777;47.482;19.054;2022-09-03T21:29:38;13.35;;;12.20;;
58758;SDS011;46777;47.482;19.054;2022-09-03T21:33:15;12.90;;;11.70;;
58758;SDS011;46777;47.482;19.054;2022-09-03T21:35:40;12.43;;;11.52;;
58758;SDS011;46777;47.482;19.054;2022-09-03T21:38:30;13.23;;;12.13;;
58758;SDS011;46777;47.482;19.054;2022-09-03T21:41:31;12.57;;;11.57;;
58758;SDS011;46777;47.482;19.054;2022-09-03T21:47:20;13.68;;;11.77;;
58758;SDS011;46777;47.482;19.054;2022-09-03T21:50:18;12.98;;;11.77;;
58758;SDS011;46777;47.482;19.054;2022-09-03T21:53:06;13.18;;;11.93;;
58758;SDS011;46777;47.482;19.054;2022-09-03T21:59:17;12.70;;;11.60;;
58758;SDS011;46777;47.482;19.054;2022-09-03T22:05:18;12.38;;;11.27;;
58758;SDS011;46777;47.482;19.054;2022-09-03T22:14:10;12.48;;;11.48;;
58758;SDS011;46777;47.482;19.054;2022-09-03T22:19:44;12.35;;;11.27;;
58758;SDS011;46777;47.482;19.054;2022-09-03T22:25:38;13.38;;;12.20;;
58758;SDS011;46777;47.482;19.054;2022-09-03T22:28:33;12.35;;;11.23;;
58758;SDS011;46777;47.482;19.054;2022-09-03T22:34:29;12.55;;;11.55;;
58758;SDS011;46777;47.482;19.054;2022-09-03T22:37:41;12.27;;;11.18;;
58758;SDS011;46777;47.482;19.054;2022-09-03T22:40:46;12.32;;;11.43;;